Terminal Aerodrome Forecast
Issued by NWS Charleston, SC

Home | Current Version | Previous Version | Text Only | Print | Product List | Glossary On
Versions: 1 2 3 4 5 6 7 8 9 10 11 12 13 14
557
FTUS42 KCHS 241721
TAFSAV
TAF
KSAV 241721Z 2418/2518 12012G18KT P6SM SCT040
     FM250000 12004KT P6SM FEW040 SCT250
     FM251600 14009KT P6SM BKN040=

USA.gov is the U.S. government's official web portal to all federal, state and local government web resources and services.